sensor_id;sensor_type;location;lat;lon;timestamp;P1;durP1;ratioP1;P2;durP2;ratioP2
2039;SDS011;1025;42.686;23.350;2022-12-19T00:00:41;8.30;;;7.60;;
2039;SDS011;1025;42.686;23.350;2022-12-19T00:03:08;10.17;;;9.17;;
2039;SDS011;1025;42.686;23.350;2022-12-19T00:05:35;12.77;;;8.63;;
2039;SDS011;1025;42.686;23.350;2022-12-19T00:08:03;7.87;;;7.27;;
2039;SDS011;1025;42.686;23.350;2022-12-19T00:10:30;8.20;;;6.90;;
2039;SDS011;1025;42.686;23.350;2022-12-19T00:12:56;9.50;;;8.60;;
2039;SDS011;1025;42.686;23.350;2022-12-19T00:15:23;9.40;;;8.50;;
2039;SDS011;1025;42.686;23.350;2022-12-19T00:17:49;11.50;;;9.33;;
2039;SDS011;1025;42.686;23.350;2022-12-19T00:20:16;11.33;;;8.17;;
2039;SDS011;1025;42.686;23.350;2022-12-19T00:22:42;8.17;;;7.57;;
2039;SDS011;1025;42.686;23.350;2022-12-19T00:25:10;8.63;;;7.93;;
2039;SDS011;1025;42.686;23.350;2022-12-19T00:27:37;8.67;;;7.97;;
2039;SDS011;1025;42.686;23.350;2022-12-19T00:30:03;11.90;;;8.83;;
2039;SDS011;1025;42.686;23.350;2022-12-19T00:32:30;9.27;;;8.20;;
2039;SDS011;1025;42.686;23.350;2022-12-19T00:34:57;7.90;;;7.10;;
2039;SDS011;1025;42.686;23.350;2022-12-19T00:37:23;14.60;;;9.83;;
2039;SDS011;1025;42.686;23.350;2022-12-19T00:39:50;9.10;;;8.40;;
2039;SDS011;1025;42.686;23.350;2022-12-19T00:42:18;10.83;;;8.20;;
2039;SDS011;1025;42.686;23.350;2022-12-19T00:44:44;9.47;;;8.47;;
2039;SDS011;1025;42.686;23.350;2022-12-19T00:47:12;7.30;;;6.80;;
2039;SDS011;1025;42.686;23.350;2022-12-19T00:49:38;8.60;;;7.47;;
2039;SDS011;1025;42.686;23.350;2022-12-19T00:52:05;8.23;;;7.43;;
2039;SDS011;1025;42.686;23.350;2022-12-19T00:54:31;10.03;;;9.00;;
2039;SDS011;1025;42.686;23.350;2022-12-19T00:56:58;9.50;;;8.67;;
2039;SDS011;1025;42.686;23.350;2022-12-19T00:59:26;9.17;;;8.27;;
2039;SDS011;1025;42.686;23.350;2022-12-19T01:01:52;8.00;;;7.20;;
2039;SDS011;1025;42.686;23.350;2022-12-19T01:04:19;8.50;;;7.80;;
2039;SDS011;1025;42.686;23.350;2022-12-19T01:06:45;11.67;;;9.10;;
2039;SDS011;1025;42.686;23.350;2022-12-19T01:09:12;17.33;;;9.90;;
2039;SDS011;1025;42.686;23.350;2022-12-19T01:11:38;9.67;;;8.87;;
2039;SDS011;1025;42.686;23.350;2022-12-19T01:14:22;9.07;;;8.47;;
2039;SDS011;1025;42.686;23.350;2022-12-19T01:16:50;13.13;;;9.97;;
2039;SDS011;1025;42.686;23.350;2022-12-19T01:19:16;11.93;;;9.40;;
2039;SDS011;1025;42.686;23.350;2022-12-19T01:21:43;16.67;;;9.20;;
2039;SDS011;1025;42.686;23.350;2022-12-19T01:24:10;8.67;;;8.07;;
2039;SDS011;1025;42.686;23.350;2022-12-19T01:26:36;8.50;;;7.80;;
2039;SDS011;1025;42.686;23.350;2022-12-19T01:29:03;8.83;;;7.87;;
2039;SDS011;1025;42.686;23.350;2022-12-19T01:31:29;9.67;;;8.23;;
2039;SDS011;1025;42.686;23.350;2022-12-19T01:33:59;12.87;;;9.77;;
2039;SDS011;1025;42.686;23.350;2022-12-19T01:36:25;11.80;;;8.37;;
2039;SDS011;1025;42.686;23.350;2022-12-19T01:38:53;9.37;;;8.50;;
2039;SDS011;1025;42.686;23.350;2022-12-19T01:41:20;8.80;;;8.00;;
2039;SDS011;1025;42.686;23.350;2022-12-19T01:43:54;9.53;;;8.70;;
2039;SDS011;1025;42.686;23.350;2022-12-19T01:46:21;9.37;;;8.33;;
2039;SDS011;1025;42.686;23.350;2022-12-19T01:48:48;8.70;;;7.73;;
2039;SDS011;1025;42.686;23.350;2022-12-19T01:51:17;10.70;;;9.03;;
2039;SDS011;1025;42.686;23.350;2022-12-19T01:53:45;8.73;;;7.47;;
2039;SDS011;1025;42.686;23.350;2022-12-19T01:56:13;8.87;;;8.07;;
2039;SDS011;1025;42.686;23.350;2022-12-19T01:58:41;11.27;;;8.17;;
2039;SDS011;1025;42.686;23.350;2022-12-19T02:01:10;7.03;;;6.50;;
2039;SDS011;1025;42.686;23.350;2022-12-19T02:03:37;9.37;;;8.67;;
2039;SDS011;1025;42.686;23.350;2022-12-19T02:06:05;9.13;;;7.60;;
2039;SDS011;1025;42.686;23.350;2022-12-19T02:08:33;8.63;;;7.90;;
2039;SDS011;1025;42.686;23.350;2022-12-19T02:11:00;9.50;;;8.30;;
2039;SDS011;1025;42.686;23.350;2022-12-19T02:13:27;8.93;;;8.23;;
2039;SDS011;1025;42.686;23.350;2022-12-19T02:15:55;8.47;;;7.77;;
2039;SDS011;1025;42.686;23.350;2022-12-19T02:18:29;8.47;;;7.87;;
2039;SDS011;1025;42.686;23.350;2022-12-19T02:21:14;12.27;;;8.73;;
2039;SDS011;1025;42.686;23.350;2022-12-19T02:26:57;6.63;;;6.00;;
2039;SDS011;1025;42.686;23.350;2022-12-19T02:29:33;10.17;;;8.53;;
2039;SDS011;1025;42.686;23.350;2022-12-19T02:32:08;8.83;;;7.93;;
2039;SDS011;1025;42.686;23.350;2022-12-19T02:34:37;9.47;;;8.63;;
2039;SDS011;1025;42.686;23.350;2022-12-19T02:37:07;34.30;;;11.03;;
2039;SDS011;1025;42.686;23.350;2022-12-19T02:39:38;9.37;;;8.37;;
2039;SDS011;1025;42.686;23.350;2022-12-19T02:42:08;10.93;;;9.83;;
2039;SDS011;1025;42.686;23.350;2022-12-19T02:44:36;13.00;;;9.00;;
2039;SDS011;1025;42.686;23.350;2022-12-19T02:47:03;9.60;;;8.60;;
2039;SDS011;1025;42.686;23.350;2022-12-19T02:49:32;13.60;;;9.90;;
2039;SDS011;1025;42.686;23.350;2022-12-19T02:52:07;9.50;;;8.70;;
2039;SDS011;1025;42.686;23.350;2022-12-19T02:54:34;11.73;;;9.00;;
2039;SDS011;1025;42.686;23.350;2022-12-19T02:57:01;11.00;;;9.17;;
2039;SDS011;1025;42.686;23.350;2022-12-19T02:59:38;10.77;;;9.70;;
2039;SDS011;1025;42.686;23.350;2022-12-19T03:02:07;11.60;;;9.17;;
2039;SDS011;1025;42.686;23.350;2022-12-19T03:04:39;8.60;;;7.83;;
2039;SDS011;1025;42.686;23.350;2022-12-19T03:07:09;7.80;;;7.30;;
2039;SDS011;1025;42.686;23.350;2022-12-19T03:09:39;8.73;;;8.03;;
2039;SDS011;1025;42.686;23.350;2022-12-19T03:12:11;9.57;;;7.60;;
2039;SDS011;1025;42.686;23.350;2022-12-19T03:14:39;9.90;;;9.00;;
2039;SDS011;1025;42.686;23.350;2022-12-19T03:17:07;9.60;;;8.73;;
2039;SDS011;1025;42.686;23.350;2022-12-19T03:19:34;7.97;;;7.37;;
2039;SDS011;1025;42.686;23.350;2022-12-19T03:22:05;10.17;;;8.90;;
2039;SDS011;1025;42.686;23.350;2022-12-19T03:24:32;9.50;;;8.70;;
2039;SDS011;1025;42.686;23.350;2022-12-19T03:26:59;10.27;;;9.20;;
2039;SDS011;1025;42.686;23.350;2022-12-19T03:29:28;13.43;;;10.97;;
2039;SDS011;1025;42.686;23.350;2022-12-19T03:31:56;9.30;;;8.47;;
2039;SDS011;1025;42.686;23.350;2022-12-19T03:34:25;9.33;;;8.33;;
2039;SDS011;1025;42.686;23.350;2022-12-19T03:36:54;8.73;;;8.03;;
2039;SDS011;1025;42.686;23.350;2022-12-19T03:39:23;11.73;;;8.53;;
2039;SDS011;1025;42.686;23.350;2022-12-19T03:41:50;9.63;;;7.97;;
2039;SDS011;1025;42.686;23.350;2022-12-19T03:44:36;12.40;;;9.37;;
2039;SDS011;1025;42.686;23.350;2022-12-19T03:47:04;9.40;;;8.53;;
2039;SDS011;1025;42.686;23.350;2022-12-19T03:49:33;9.50;;;7.77;;
2039;SDS011;1025;42.686;23.350;2022-12-19T03:52:02;11.37;;;10.47;;
2039;SDS011;1025;42.686;23.350;2022-12-19T03:54:33;10.43;;;9.40;;
2039;SDS011;1025;42.686;23.350;2022-12-19T03:57:03;10.40;;;8.80;;
2039;SDS011;1025;42.686;23.350;2022-12-19T03:59:32;13.40;;;9.47;;
2039;SDS011;1025;42.686;23.350;2022-12-19T04:02:01;10.87;;;9.93;;
2039;SDS011;1025;42.686;23.350;2022-12-19T04:04:28;10.50;;;9.70;;
2039;SDS011;1025;42.686;23.350;2022-12-19T04:06:56;8.67;;;7.90;;
2039;SDS011;1025;42.686;23.350;2022-12-19T04:09:23;9.17;;;8.37;;
2039;SDS011;1025;42.686;23.350;2022-12-19T04:11:52;10.60;;;9.60;;
2039;SDS011;1025;42.686;23.350;2022-12-19T04:14:21;10.33;;;9.53;;
2039;SDS011;1025;42.686;23.350;2022-12-19T04:16:52;11.33;;;9.20;;
2039;SDS011;1025;42.686;23.350;2022-12-19T04:19:23;9.50;;;8.70;;
2039;SDS011;1025;42.686;23.350;2022-12-19T04:21:52;9.70;;;8.50;;
2039;SDS011;1025;42.686;23.350;2022-12-19T04:24:22;9.10;;;8.23;;
2039;SDS011;1025;42.686;23.350;2022-12-19T04:26:49;9.73;;;8.87;;
2039;SDS011;1025;42.686;23.350;2022-12-19T04:29:19;8.70;;;8.07;;
2039;SDS011;1025;42.686;23.350;2022-12-19T04:31:45;11.37;;;9.03;;
2039;SDS011;1025;42.686;23.350;2022-12-19T04:34:13;11.57;;;9.60;;
2039;SDS011;1025;42.686;23.350;2022-12-19T04:36:40;9.50;;;8.70;;
2039;SDS011;1025;42.686;23.350;2022-12-19T04:39:07;11.20;;;10.07;;
2039;SDS011;1025;42.686;23.350;2022-12-19T04:41:33;13.90;;;9.30;;
2039;SDS011;1025;42.686;23.350;2022-12-19T04:44:00;15.53;;;9.53;;
2039;SDS011;1025;42.686;23.350;2022-12-19T04:46:28;9.93;;;8.73;;
2039;SDS011;1025;42.686;23.350;2022-12-19T04:48:54;9.37;;;8.57;;
2039;SDS011;1025;42.686;23.350;2022-12-19T04:51:21;13.40;;;9.10;;
2039;SDS011;1025;42.686;23.350;2022-12-19T04:53:48;9.70;;;9.00;;
2039;SDS011;1025;42.686;23.350;2022-12-19T04:56:14;9.40;;;8.60;;
2039;SDS011;1025;42.686;23.350;2022-12-19T04:58:41;13.73;;;9.37;;
2039;SDS011;1025;42.686;23.350;2022-12-19T05:01:07;10.90;;;9.53;;
2039;SDS011;1025;42.686;23.350;2022-12-19T05:03:36;15.33;;;9.50;;
2039;SDS011;1025;42.686;23.350;2022-12-19T05:06:06;16.00;;;10.07;;
2039;SDS011;1025;42.686;23.350;2022-12-19T05:08:33;11.77;;;10.53;;
2039;SDS011;1025;42.686;23.350;2022-12-19T05:11:00;11.23;;;10.10;;
2039;SDS011;1025;42.686;23.350;2022-12-19T05:13:27;11.27;;;10.27;;
2039;SDS011;1025;42.686;23.350;2022-12-19T05:15:54;13.30;;;10.23;;
2039;SDS011;1025;42.686;23.350;2022-12-19T05:18:21;10.57;;;9.10;;
2039;SDS011;1025;42.686;23.350;2022-12-19T05:20:49;13.23;;;9.20;;
2039;SDS011;1025;42.686;23.350;2022-12-19T05:23:16;10.07;;;9.37;;
2039;SDS011;1025;42.686;23.350;2022-12-19T05:25:42;9.97;;;9.00;;
2039;SDS011;1025;42.686;23.350;2022-12-19T05:28:09;10.57;;;9.70;;
2039;SDS011;1025;42.686;23.350;2022-12-19T05:30:35;10.67;;;9.37;;
2039;SDS011;1025;42.686;23.350;2022-12-19T05:33:02;11.57;;;10.40;;
2039;SDS011;1025;42.686;23.350;2022-12-19T05:35:28;9.40;;;8.60;;
2039;SDS011;1025;42.686;23.350;2022-12-19T05:37:56;11.07;;;10.07;;
2039;SDS011;1025;42.686;23.350;2022-12-19T05:40:23;9.33;;;8.43;;
2039;SDS011;1025;42.686;23.350;2022-12-19T05:42:49;10.33;;;9.37;;
2039;SDS011;1025;42.686;23.350;2022-12-19T05:45:16;10.47;;;9.57;;
2039;SDS011;1025;42.686;23.350;2022-12-19T05:47:43;11.33;;;10.07;;
2039;SDS011;1025;42.686;23.350;2022-12-19T05:50:10;10.57;;;9.77;;
2039;SDS011;1025;42.686;23.350;2022-12-19T05:52:37;10.67;;;9.63;;
2039;SDS011;1025;42.686;23.350;2022-12-19T05:55:06;10.43;;;9.43;;
2039;SDS011;1025;42.686;23.350;2022-12-19T05:57:32;18.00;;;11.57;;
2039;SDS011;1025;42.686;23.350;2022-12-19T05:59:59;12.87;;;11.77;;
2039;SDS011;1025;42.686;23.350;2022-12-19T06:02:25;10.50;;;9.43;;
2039;SDS011;1025;42.686;23.350;2022-12-19T06:04:52;11.70;;;10.70;;
2039;SDS011;1025;42.686;23.350;2022-12-19T06:07:18;20.47;;;10.10;;
2039;SDS011;1025;42.686;23.350;2022-12-19T06:09:45;10.33;;;9.33;;
2039;SDS011;1025;42.686;23.350;2022-12-19T06:12:13;11.97;;;10.47;;
2039;SDS011;1025;42.686;23.350;2022-12-19T06:14:39;12.30;;;11.20;;
2039;SDS011;1025;42.686;23.350;2022-12-19T06:17:06;11.47;;;10.57;;
2039;SDS011;1025;42.686;23.350;2022-12-19T06:19:32;14.83;;;10.07;;
2039;SDS011;1025;42.686;23.350;2022-12-19T06:21:59;14.33;;;12.83;;
2039;SDS011;1025;42.686;23.350;2022-12-19T06:24:25;12.00;;;10.90;;
2039;SDS011;1025;42.686;23.350;2022-12-19T06:26:52;10.50;;;9.70;;
2039;SDS011;1025;42.686;23.350;2022-12-19T06:29:20;11.27;;;10.37;;
2039;SDS011;1025;42.686;23.350;2022-12-19T06:31:46;11.93;;;10.70;;
2039;SDS011;1025;42.686;23.350;2022-12-19T06:34:13;11.43;;;10.30;;
2039;SDS011;1025;42.686;23.350;2022-12-19T06:36:39;14.27;;;11.10;;
2039;SDS011;1025;42.686;23.350;2022-12-19T06:39:06;29.03;;;12.87;;
2039;SDS011;1025;42.686;23.350;2022-12-19T06:41:32;14.53;;;11.70;;
2039;SDS011;1025;42.686;23.350;2022-12-19T06:44:16;10.00;;;9.10;;
2039;SDS011;1025;42.686;23.350;2022-12-19T06:46:44;9.37;;;8.57;;
2039;SDS011;1025;42.686;23.350;2022-12-19T06:49:10;8.87;;;8.03;;
2039;SDS011;1025;42.686;23.350;2022-12-19T06:51:37;11.47;;;10.37;;
2039;SDS011;1025;42.686;23.350;2022-12-19T06:54:04;10.20;;;9.40;;
2039;SDS011;1025;42.686;23.350;2022-12-19T06:56:33;13.00;;;9.30;;
2039;SDS011;1025;42.686;23.350;2022-12-19T06:59:00;10.60;;;9.67;;
2039;SDS011;1025;42.686;23.350;2022-12-19T07:01:28;14.40;;;9.80;;
2039;SDS011;1025;42.686;23.350;2022-12-19T07:04:03;20.20;;;11.23;;
2039;SDS011;1025;42.686;23.350;2022-12-19T07:06:30;13.03;;;11.73;;
2039;SDS011;1025;42.686;23.350;2022-12-19T07:08:56;17.00;;;13.40;;
2039;SDS011;1025;42.686;23.350;2022-12-19T07:11:23;11.13;;;9.80;;
2039;SDS011;1025;42.686;23.350;2022-12-19T07:13:49;14.03;;;12.10;;
2039;SDS011;1025;42.686;23.350;2022-12-19T07:16:16;13.03;;;11.90;;
2039;SDS011;1025;42.686;23.350;2022-12-19T07:18:43;10.93;;;9.93;;
2039;SDS011;1025;42.686;23.350;2022-12-19T07:21:10;16.27;;;11.00;;
2039;SDS011;1025;42.686;23.350;2022-12-19T07:23:37;12.57;;;11.47;;
2039;SDS011;1025;42.686;23.350;2022-12-19T07:26:04;11.20;;;9.60;;
2039;SDS011;1025;42.686;23.350;2022-12-19T07:28:31;11.07;;;10.10;;
2039;SDS011;1025;42.686;23.350;2022-12-19T07:30:58;12.00;;;10.77;;
2039;SDS011;1025;42.686;23.350;2022-12-19T07:33:25;21.53;;;15.20;;
2039;SDS011;1025;42.686;23.350;2022-12-19T07:35:51;14.43;;;13.17;;
2039;SDS011;1025;42.686;23.350;2022-12-19T07:38:19;15.87;;;13.27;;
2039;SDS011;1025;42.686;23.350;2022-12-19T07:40:46;14.33;;;11.90;;
2039;SDS011;1025;42.686;23.350;2022-12-19T07:43:12;13.83;;;12.00;;
2039;SDS011;1025;42.686;23.350;2022-12-19T07:45:39;12.60;;;10.83;;
2039;SDS011;1025;42.686;23.350;2022-12-19T07:48:06;15.23;;;13.77;;
2039;SDS011;1025;42.686;23.350;2022-12-19T07:50:32;13.80;;;12.37;;
2039;SDS011;1025;42.686;23.350;2022-12-19T07:52:59;13.13;;;11.80;;
2039;SDS011;1025;42.686;23.350;2022-12-19T07:55:27;20.20;;;13.33;;
2039;SDS011;1025;42.686;23.350;2022-12-19T07:57:53;20.27;;;13.13;;
2039;SDS011;1025;42.686;23.350;2022-12-19T08:00:20;11.63;;;9.60;;
2039;SDS011;1025;42.686;23.350;2022-12-19T08:02:47;15.83;;;14.23;;
2039;SDS011;1025;42.686;23.350;2022-12-19T08:05:13;17.20;;;15.47;;
2039;SDS011;1025;42.686;23.350;2022-12-19T08:07:40;14.60;;;13.27;;
2039;SDS011;1025;42.686;23.350;2022-12-19T08:10:07;38.43;;;17.07;;
2039;SDS011;1025;42.686;23.350;2022-12-19T08:12:36;21.83;;;14.20;;
2039;SDS011;1025;42.686;23.350;2022-12-19T08:15:03;16.87;;;15.40;;
2039;SDS011;1025;42.686;23.350;2022-12-19T08:17:30;16.40;;;14.53;;
2039;SDS011;1025;42.686;23.350;2022-12-19T08:19:57;17.30;;;15.50;;
2039;SDS011;1025;42.686;23.350;2022-12-19T08:22:23;12.80;;;11.50;;
2039;SDS011;1025;42.686;23.350;2022-12-19T08:24:50;13.93;;;12.73;;
2039;SDS011;1025;42.686;23.350;2022-12-19T08:27:16;15.40;;;13.93;;
2039;SDS011;1025;42.686;23.350;2022-12-19T08:29:44;17.80;;;15.13;;
2039;SDS011;1025;42.686;23.350;2022-12-19T08:32:11;13.93;;;12.50;;
2039;SDS011;1025;42.686;23.350;2022-12-19T08:34:38;17.20;;;15.75;;
2039;SDS011;1025;42.686;23.350;2022-12-19T08:37:05;15.93;;;13.80;;
2039;SDS011;1025;42.686;23.350;2022-12-19T08:39:32;12.20;;;11.23;;
2039;SDS011;1025;42.686;23.350;2022-12-19T08:41:58;13.60;;;12.00;;
2039;SDS011;1025;42.686;23.350;2022-12-19T08:44:25;16.47;;;14.07;;
2039;SDS011;1025;42.686;23.350;2022-12-19T08:46:53;18.43;;;15.37;;
2039;SDS011;1025;42.686;23.350;2022-12-19T08:49:19;15.10;;;13.50;;
2039;SDS011;1025;42.686;23.350;2022-12-19T08:51:46;27.53;;;14.03;;
2039;SDS011;1025;42.686;23.350;2022-12-19T08:54:12;27.87;;;15.10;;
2039;SDS011;1025;42.686;23.350;2022-12-19T08:56:39;14.33;;;12.97;;
2039;SDS011;1025;42.686;23.350;2022-12-19T08:59:06;17.33;;;15.67;;
2039;SDS011;1025;42.686;23.350;2022-12-19T09:01:32;17.97;;;15.70;;
2039;SDS011;1025;42.686;23.350;2022-12-19T09:04:00;20.70;;;14.63;;
2039;SDS011;1025;42.686;23.350;2022-12-19T09:06:27;14.87;;;13.57;;
2039;SDS011;1025;42.686;23.350;2022-12-19T09:08:53;16.30;;;14.67;;
2039;SDS011;1025;42.686;23.350;2022-12-19T09:11:20;15.00;;;13.67;;
2039;SDS011;1025;42.686;23.350;2022-12-19T09:13:46;12.90;;;11.70;;
2039;SDS011;1025;42.686;23.350;2022-12-19T09:16:14;13.37;;;12.00;;
2039;SDS011;1025;42.686;23.350;2022-12-19T09:18:42;13.90;;;12.40;;
2039;SDS011;1025;42.686;23.350;2022-12-19T09:21:11;13.60;;;12.27;;
2039;SDS011;1025;42.686;23.350;2022-12-19T09:23:37;14.83;;;12.63;;
2039;SDS011;1025;42.686;23.350;2022-12-19T09:26:05;15.30;;;13.50;;
2039;SDS011;1025;42.686;23.350;2022-12-19T09:28:32;17.17;;;13.97;;
2039;SDS011;1025;42.686;23.350;2022-12-19T09:30:59;14.67;;;13.43;;
2039;SDS011;1025;42.686;23.350;2022-12-19T09:33:26;13.33;;;12.00;;
2039;SDS011;1025;42.686;23.350;2022-12-19T09:35:54;26.60;;;14.33;;
2039;SDS011;1025;42.686;23.350;2022-12-19T09:38:22;15.80;;;13.80;;
2039;SDS011;1025;42.686;23.350;2022-12-19T09:40:51;17.53;;;13.40;;
2039;SDS011;1025;42.686;23.350;2022-12-19T09:43:23;11.07;;;9.83;;
2039;SDS011;1025;42.686;23.350;2022-12-19T09:45:53;18.67;;;12.20;;
2039;SDS011;1025;42.686;23.350;2022-12-19T09:48:22;11.10;;;10.10;;
2039;SDS011;1025;42.686;23.350;2022-12-19T09:50:51;9.60;;;8.67;;
2039;SDS011;1025;42.686;23.350;2022-12-19T09:53:21;7.43;;;6.83;;
2039;SDS011;1025;42.686;23.350;2022-12-19T09:55:50;15.00;;;12.20;;
2039;SDS011;1025;42.686;23.350;2022-12-19T09:58:29;9.23;;;8.20;;
2039;SDS011;1025;42.686;23.350;2022-12-19T10:00:57;11.50;;;9.63;;
2039;SDS011;1025;42.686;23.350;2022-12-19T10:03:27;12.17;;;10.90;;
2039;SDS011;1025;42.686;23.350;2022-12-19T10:05:54;9.77;;;8.73;;
2039;SDS011;1025;42.686;23.350;2022-12-19T10:08:23;20.40;;;13.00;;
2039;SDS011;1025;42.686;23.350;2022-12-19T10:10:55;10.33;;;9.23;;
2039;SDS011;1025;42.686;23.350;2022-12-19T10:13:29;18.80;;;11.53;;
2039;SDS011;1025;42.686;23.350;2022-12-19T10:15:59;12.33;;;10.43;;
2039;SDS011;1025;42.686;23.350;2022-12-19T10:18:32;11.90;;;10.07;;
2039;SDS011;1025;42.686;23.350;2022-12-19T10:21:01;10.73;;;9.67;;
2039;SDS011;1025;42.686;23.350;2022-12-19T10:23:36;8.40;;;7.33;;
2039;SDS011;1025;42.686;23.350;2022-12-19T10:26:11;7.80;;;7.30;;
2039;SDS011;1025;42.686;23.350;2022-12-19T10:28:44;11.33;;;10.17;;
2039;SDS011;1025;42.686;23.350;2022-12-19T10:31:15;11.87;;;10.60;;
2039;SDS011;1025;42.686;23.350;2022-12-19T10:33:43;10.40;;;9.57;;
2039;SDS011;1025;42.686;23.350;2022-12-19T10:36:11;11.67;;;10.33;;
2039;SDS011;1025;42.686;23.350;2022-12-19T10:38:39;13.27;;;11.87;;
2039;SDS011;1025;42.686;23.350;2022-12-19T10:41:12;25.93;;;10.40;;
2039;SDS011;1025;42.686;23.350;2022-12-19T10:43:43;12.00;;;10.00;;
2039;SDS011;1025;42.686;23.350;2022-12-19T10:46:12;11.83;;;10.87;;
2039;SDS011;1025;42.686;23.350;2022-12-19T10:48:40;11.17;;;10.07;;
2039;SDS011;1025;42.686;23.350;2022-12-19T10:51:10;16.00;;;11.80;;
2039;SDS011;1025;42.686;23.350;2022-12-19T10:53:37;12.13;;;10.93;;
2039;SDS011;1025;42.686;23.350;2022-12-19T10:56:12;14.80;;;9.60;;
2039;SDS011;1025;42.686;23.350;2022-12-19T10:58:41;11.73;;;9.47;;
2039;SDS011;1025;42.686;23.350;2022-12-19T11:01:09;11.03;;;10.17;;
2039;SDS011;1025;42.686;23.350;2022-12-19T11:03:37;11.97;;;10.97;;
2039;SDS011;1025;42.686;23.350;2022-12-19T11:06:04;11.03;;;9.93;;
2039;SDS011;1025;42.686;23.350;2022-12-19T11:08:32;13.17;;;10.03;;
2039;SDS011;1025;42.686;23.350;2022-12-19T11:11:08;12.20;;;10.50;;
2039;SDS011;1025;42.686;23.350;2022-12-19T11:13:40;8.53;;;7.83;;
2039;SDS011;1025;42.686;23.350;2022-12-19T11:16:07;9.97;;;8.97;;
2039;SDS011;1025;42.686;23.350;2022-12-19T11:18:34;10.23;;;9.20;;
2039;SDS011;1025;42.686;23.350;2022-12-19T11:21:03;10.80;;;9.90;;
2039;SDS011;1025;42.686;23.350;2022-12-19T11:23:30;8.63;;;7.93;;
2039;SDS011;1025;42.686;23.350;2022-12-19T11:25:57;8.93;;;8.00;;
2039;SDS011;1025;42.686;23.350;2022-12-19T11:28:26;8.97;;;8.37;;
2039;SDS011;1025;42.686;23.350;2022-12-19T11:30:55;12.03;;;8.53;;
2039;SDS011;1025;42.686;23.350;2022-12-19T11:33:22;7.03;;;6.40;;
2039;SDS011;1025;42.686;23.350;2022-12-19T11:35:50;9.40;;;8.67;;
2039;SDS011;1025;42.686;23.350;2022-12-19T11:38:17;10.17;;;7.37;;
2039;SDS011;1025;42.686;23.350;2022-12-19T11:40:46;18.20;;;6.83;;
2039;SDS011;1025;42.686;23.350;2022-12-19T11:43:16;10.63;;;9.47;;
2039;SDS011;1025;42.686;23.350;2022-12-19T11:45:47;3.87;;;3.50;;
2039;SDS011;1025;42.686;23.350;2022-12-19T11:48:17;8.10;;;6.73;;
2039;SDS011;1025;42.686;23.350;2022-12-19T11:50:49;8.90;;;8.30;;
2039;SDS011;1025;42.686;23.350;2022-12-19T11:53:20;8.03;;;7.27;;
2039;SDS011;1025;42.686;23.350;2022-12-19T11:55:50;10.20;;;8.83;;
2039;SDS011;1025;42.686;23.350;2022-12-19T11:58:18;10.83;;;8.63;;
2039;SDS011;1025;42.686;23.350;2022-12-19T12:00:46;7.50;;;6.80;;
2039;SDS011;1025;42.686;23.350;2022-12-19T12:03:26;18.90;;;8.87;;
2039;SDS011;1025;42.686;23.350;2022-12-19T12:05:55;9.33;;;7.80;;
2039;SDS011;1025;42.686;23.350;2022-12-19T12:08:28;7.67;;;6.97;;
2039;SDS011;1025;42.686;23.350;2022-12-19T12:11:00;9.70;;;8.67;;
2039;SDS011;1025;42.686;23.350;2022-12-19T12:13:31;7.53;;;6.93;;
2039;SDS011;1025;42.686;23.350;2022-12-19T12:16:00;6.90;;;6.37;;
2039;SDS011;1025;42.686;23.350;2022-12-19T12:18:35;8.10;;;7.60;;
2039;SDS011;1025;42.686;23.350;2022-12-19T12:21:06;7.50;;;6.80;;
2039;SDS011;1025;42.686;23.350;2022-12-19T12:23:35;10.40;;;7.40;;
2039;SDS011;1025;42.686;23.350;2022-12-19T12:26:07;6.80;;;6.23;;
2039;SDS011;1025;42.686;23.350;2022-12-19T12:28:39;7.90;;;7.10;;
2039;SDS011;1025;42.686;23.350;2022-12-19T12:31:10;8.67;;;8.00;;
2039;SDS011;1025;42.686;23.350;2022-12-19T12:33:42;7.10;;;6.57;;
2039;SDS011;1025;42.686;23.350;2022-12-19T12:36:15;8.90;;;8.10;;
2039;SDS011;1025;42.686;23.350;2022-12-19T12:38:49;11.13;;;7.23;;
2039;SDS011;1025;42.686;23.350;2022-12-19T12:41:18;6.73;;;6.33;;
2039;SDS011;1025;42.686;23.350;2022-12-19T12:44:08;7.37;;;6.80;;
2039;SDS011;1025;42.686;23.350;2022-12-19T12:46:36;7.77;;;6.97;;
2039;SDS011;1025;42.686;23.350;2022-12-19T12:49:11;9.30;;;5.83;;
2039;SDS011;1025;42.686;23.350;2022-12-19T12:51:41;9.07;;;8.37;;
2039;SDS011;1025;42.686;23.350;2022-12-19T12:54:10;5.70;;;5.13;;
2039;SDS011;1025;42.686;23.350;2022-12-19T12:56:38;5.63;;;4.77;;
2039;SDS011;1025;42.686;23.350;2022-12-19T12:59:18;6.90;;;6.40;;
2039;SDS011;1025;42.686;23.350;2022-12-19T13:01:47;10.43;;;7.33;;
2039;SDS011;1025;42.686;23.350;2022-12-19T13:04:18;7.63;;;6.97;;
2039;SDS011;1025;42.686;23.350;2022-12-19T13:07:01;4.33;;;4.13;;
2039;SDS011;1025;42.686;23.350;2022-12-19T13:09:28;5.23;;;4.93;;
2039;SDS011;1025;42.686;23.350;2022-12-19T13:11:56;7.80;;;7.17;;
2039;SDS011;1025;42.686;23.350;2022-12-19T13:14:44;20.57;;;8.40;;
2039;SDS011;1025;42.686;23.350;2022-12-19T13:17:11;8.83;;;8.07;;
2039;SDS011;1025;42.686;23.350;2022-12-19T13:19:50;6.30;;;5.70;;
2039;SDS011;1025;42.686;23.350;2022-12-19T13:22:19;8.03;;;6.47;;
2039;SDS011;1025;42.686;23.350;2022-12-19T13:24:47;4.90;;;4.60;;
2039;SDS011;1025;42.686;23.350;2022-12-19T13:30:00;7.17;;;6.67;;
2039;SDS011;1025;42.686;23.350;2022-12-19T13:32:31;7.00;;;6.50;;
2039;SDS011;1025;42.686;23.350;2022-12-19T13:34:59;7.70;;;5.93;;
2039;SDS011;1025;42.686;23.350;2022-12-19T13:37:27;7.23;;;6.70;;
2039;SDS011;1025;42.686;23.350;2022-12-19T13:40:00;8.27;;;7.57;;
2039;SDS011;1025;42.686;23.350;2022-12-19T13:42:31;7.57;;;6.87;;
2039;SDS011;1025;42.686;23.350;2022-12-19T13:45:18;6.70;;;6.20;;
2039;SDS011;1025;42.686;23.350;2022-12-19T13:47:47;8.83;;;3.37;;
2039;SDS011;1025;42.686;23.350;2022-12-19T13:50:17;5.40;;;5.00;;
2039;SDS011;1025;42.686;23.350;2022-12-19T13:52:48;6.77;;;6.00;;
2039;SDS011;1025;42.686;23.350;2022-12-19T13:55:15;5.67;;;5.17;;
2039;SDS011;1025;42.686;23.350;2022-12-19T13:57:41;5.70;;;5.00;;
2039;SDS011;1025;42.686;23.350;2022-12-19T14:00:09;9.43;;;6.83;;
2039;SDS011;1025;42.686;23.350;2022-12-19T14:02:37;7.00;;;6.00;;
2039;SDS011;1025;42.686;23.350;2022-12-19T14:05:04;6.33;;;5.70;;
2039;SDS011;1025;42.686;23.350;2022-12-19T14:07:37;3.37;;;3.20;;
2039;SDS011;1025;42.686;23.350;2022-12-19T14:13:09;6.87;;;6.27;;
2039;SDS011;1025;42.686;23.350;2022-12-19T14:15:55;6.33;;;5.80;;
2039;SDS011;1025;42.686;23.350;2022-12-19T14:18:24;7.73;;;7.03;;
2039;SDS011;1025;42.686;23.350;2022-12-19T14:20:52;6.83;;;5.90;;
2039;SDS011;1025;42.686;23.350;2022-12-19T14:23:33;10.87;;;7.43;;
2039;SDS011;1025;42.686;23.350;2022-12-19T14:26:00;6.47;;;5.87;;
2039;SDS011;1025;42.686;23.350;2022-12-19T14:28:27;5.53;;;4.93;;
2039;SDS011;1025;42.686;23.350;2022-12-19T14:30:59;6.00;;;5.47;;
2039;SDS011;1025;42.686;23.350;2022-12-19T14:33:29;6.83;;;6.33;;
2039;SDS011;1025;42.686;23.350;2022-12-19T14:35:57;6.57;;;6.20;;
2039;SDS011;1025;42.686;23.350;2022-12-19T14:38:25;8.10;;;6.20;;
2039;SDS011;1025;42.686;23.350;2022-12-19T14:40:53;8.40;;;7.60;;
2039;SDS011;1025;42.686;23.350;2022-12-19T14:43:21;4.53;;;4.23;;
2039;SDS011;1025;42.686;23.350;2022-12-19T14:46:12;8.37;;;6.47;;
2039;SDS011;1025;42.686;23.350;2022-12-19T14:48:49;4.00;;;3.70;;
2039;SDS011;1025;42.686;23.350;2022-12-19T14:51:19;7.50;;;6.80;;
2039;SDS011;1025;42.686;23.350;2022-12-19T14:54:01;9.13;;;7.87;;
2039;SDS011;1025;42.686;23.350;2022-12-19T14:56:29;11.50;;;7.40;;
2039;SDS011;1025;42.686;23.350;2022-12-19T14:58:58;17.63;;;5.77;;
2039;SDS011;1025;42.686;23.350;2022-12-19T15:01:26;5.90;;;5.50;;
2039;SDS011;1025;42.686;23.350;2022-12-19T15:03:53;8.40;;;6.80;;
2039;SDS011;1025;42.686;23.350;2022-12-19T15:06:22;3.33;;;3.13;;
2039;SDS011;1025;42.686;23.350;2022-12-19T15:08:51;14.00;;;4.30;;